sensor_id;sensor_type;location;lat;lon;timestamp;pressure;altitude;pressure_sealevel;temperature;humidity
11643;BME280;5877;50.930;6.918;2022-11-11T00:04:42;102139.81;;;6.57;81.03
11643;BME280;5877;50.930;6.918;2022-11-11T00:09:53;102118.03;;;6.48;81.49
11643;BME280;5877;50.930;6.918;2022-11-11T00:15:04;102202.84;;;6.98;81.68
11643;BME280;5877;50.930;6.918;2022-11-11T00:20:14;102308.72;;;7.45;81.25
11643;BME280;5877;50.930;6.918;2022-11-11T00:25:52;102307.81;;;7.55;81.98
11643;BME280;5877;50.930;6.918;2022-11-11T00:31:23;102283.41;;;7.28;81.61
11643;BME280;5877;50.930;6.918;2022-11-11T00:36:33;102232.66;;;6.95;81.71
11643;BME280;5877;50.930;6.918;2022-11-11T00:41:43;102031.72;;;5.51;81.89
11643;BME280;5877;50.930;6.918;2022-11-11T00:46:54;102340.97;;;7.36;82.16
11643;BME280;5877;50.930;6.918;2022-11-11T00:52:23;102198.38;;;6.45;82.02
11643;BME280;5877;50.930;6.918;2022-11-11T00:57:34;102333.44;;;7.33;82.38
11643;BME280;5877;50.930;6.918;2022-11-11T01:02:44;102224.34;;;6.64;81.92
11643;BME280;5877;50.930;6.918;2022-11-11T01:07:54;102106.41;;;5.88;82.17
11643;BME280;5877;50.930;6.918;2022-11-11T01:13:16;102378.38;;;7.55;82.60
11643;BME280;5877;50.930;6.918;2022-11-11T01:18:28;101956.47;;;4.84;82.04
11643;BME280;5877;50.930;6.918;2022-11-11T01:23:40;102362.31;;;7.32;82.97
11643;BME280;5877;50.930;6.918;2022-11-11T01:28:53;102401.94;;;7.45;82.62
11643;BME280;5877;50.930;6.918;2022-11-11T01:34:03;102399.09;;;7.38;82.79
11643;BME280;5877;50.930;6.918;2022-11-11T01:39:14;102291.59;;;6.70;83.10
11643;BME280;5877;50.930;6.918;2022-11-11T01:44:45;102328.19;;;6.88;83.01
11643;BME280;5877;50.930;6.918;2022-11-11T01:49:59;102299.63;;;6.59;83.36
11643;BME280;5877;50.930;6.918;2022-11-11T01:55:21;102268.97;;;6.34;82.80
11643;BME280;5877;50.930;6.918;2022-11-11T02:00:33;102111.34;;;5.44;82.98
11643;BME280;5877;50.930;6.918;2022-11-11T02:05:43;102351.69;;;6.88;83.13
11643;BME280;5877;50.930;6.918;2022-11-11T02:11:16;102366.63;;;6.96;83.40
11643;BME280;5877;50.930;6.918;2022-11-11T02:16:46;102272.53;;;6.33;83.63
11643;BME280;5877;50.930;6.918;2022-11-11T02:22:00;102085.97;;;5.09;83.43
11643;BME280;5877;50.930;6.918;2022-11-11T02:27:13;102403.47;;;7.20;83.18
11643;BME280;5877;50.930;6.918;2022-11-11T02:32:25;102346.22;;;6.81;83.52
11643;BME280;5877;50.930;6.918;2022-11-11T02:37:35;102271.72;;;6.32;83.25
11643;BME280;5877;50.930;6.918;2022-11-11T02:42:46;102400.22;;;7.08;83.30
11643;BME280;5877;50.930;6.918;2022-11-11T02:47:56;101847.44;;;3.49;83.70
11643;BME280;5877;50.930;6.918;2022-11-11T02:53:06;102384.50;;;6.91;84.12
11643;BME280;5877;50.930;6.918;2022-11-11T02:58:17;102395.19;;;6.97;84.13
11643;BME280;5877;50.930;6.918;2022-11-11T03:03:27;102078.19;;;5.00;83.71
11643;BME280;5877;50.930;6.918;2022-11-11T03:08:39;102166.31;;;5.51;83.93
11643;BME280;5877;50.930;6.918;2022-11-11T03:13:50;102114.47;;;5.11;84.13
11643;BME280;5877;50.930;6.918;2022-11-11T03:19:00;102081.19;;;4.95;84.17
11643;BME280;5877;50.930;6.918;2022-11-11T03:24:12;102238.38;;;5.89;84.40
11643;BME280;5877;50.930;6.918;2022-11-11T03:29:22;102414.19;;;6.90;84.32
11643;BME280;5877;50.930;6.918;2022-11-11T03:34:33;102291.63;;;6.24;84.13
11643;BME280;5877;50.930;6.918;2022-11-11T03:39:43;102263.72;;;5.87;83.94
11643;BME280;5877;50.930;6.918;2022-11-11T03:44:54;102138.03;;;5.09;83.79
11643;BME280;5877;50.930;6.918;2022-11-11T03:50:05;102144.44;;;5.15;84.32
11643;BME280;5877;50.930;6.918;2022-11-11T03:55:15;102412.44;;;6.71;84.35
11643;BME280;5877;50.930;6.918;2022-11-11T04:00:28;102288.81;;;5.88;84.67
11643;BME280;5877;50.930;6.918;2022-11-11T04:05:38;102235.66;;;5.42;84.42
11643;BME280;5877;50.930;6.918;2022-11-11T04:11:13;101973.22;;;3.95;84.35
11643;BME280;5877;50.930;6.918;2022-11-11T04:16:24;102195.38;;;5.27;85.00
11643;BME280;5877;50.930;6.918;2022-11-11T04:21:35;102349.44;;;6.09;84.73
11643;BME280;5877;50.930;6.918;2022-11-11T04:26:56;102213.50;;;5.19;84.51
11643;BME280;5877;50.930;6.918;2022-11-11T04:32:12;102308.00;;;5.87;84.79
11643;BME280;5877;50.930;6.918;2022-11-11T04:37:47;102423.22;;;6.48;84.85
11643;BME280;5877;50.930;6.918;2022-11-11T04:43:00;102154.72;;;4.87;84.79
11643;BME280;5877;50.930;6.918;2022-11-11T04:48:11;102210.06;;;5.18;84.23
11643;BME280;5877;50.930;6.918;2022-11-11T04:53:22;102428.16;;;6.51;84.96
11643;BME280;5877;50.930;6.918;2022-11-11T04:58:34;102422.09;;;6.51;84.67
11643;BME280;5877;50.930;6.918;2022-11-11T05:03:44;102318.03;;;5.82;84.83
11643;BME280;5877;50.930;6.918;2022-11-11T05:08:55;102336.28;;;5.92;84.34
11643;BME280;5877;50.930;6.918;2022-11-11T05:14:06;102331.06;;;5.92;84.46
11643;BME280;5877;50.930;6.918;2022-11-11T05:19:35;101907.38;;;3.36;84.41
11643;BME280;5877;50.930;6.918;2022-11-11T05:25:05;102357.13;;;5.92;84.54
11643;BME280;5877;50.930;6.918;2022-11-11T05:30:34;102267.44;;;5.46;84.82
11643;BME280;5877;50.930;6.918;2022-11-11T05:35:45;102380.16;;;6.15;84.45
11643;BME280;5877;50.930;6.918;2022-11-11T05:40:56;102371.94;;;6.01;85.04
11643;BME280;5877;50.930;6.918;2022-11-11T05:46:06;102267.31;;;5.47;84.99
11643;BME280;5877;50.930;6.918;2022-11-11T05:51:16;102431.47;;;6.34;85.19
11643;BME280;5877;50.930;6.918;2022-11-11T05:56:37;101972.28;;;3.46;84.42
11643;BME280;5877;50.930;6.918;2022-11-11T06:01:48;102409.25;;;6.21;85.36
11643;BME280;5877;50.930;6.918;2022-11-11T06:06:58;102383.75;;;5.95;84.84
11643;BME280;5877;50.930;6.918;2022-11-11T06:12:09;102355.19;;;5.84;84.20
11643;BME280;5877;50.930;6.918;2022-11-11T06:17:21;102430.50;;;6.26;84.59
11643;BME280;5877;50.930;6.918;2022-11-11T06:22:33;102136.06;;;4.44;84.34
11643;BME280;5877;50.930;6.918;2022-11-11T06:28:02;102433.41;;;6.23;84.78
11643;BME280;5877;50.930;6.918;2022-11-11T06:33:12;102202.50;;;4.77;84.75
11643;BME280;5877;50.930;6.918;2022-11-11T06:38:23;102429.41;;;5.99;84.96
11643;BME280;5877;50.930;6.918;2022-11-11T06:43:33;102473.88;;;6.36;84.39
11643;BME280;5877;50.930;6.918;2022-11-11T06:48:44;102418.16;;;5.89;84.62
11643;BME280;5877;50.930;6.918;2022-11-11T06:53:54;102383.72;;;5.76;84.48
11643;BME280;5877;50.930;6.918;2022-11-11T06:59:04;102388.78;;;5.87;84.97
11643;BME280;5877;50.930;6.918;2022-11-11T07:04:15;102515.47;;;6.57;84.54
11643;BME280;5877;50.930;6.918;2022-11-11T07:09:25;102503.22;;;6.67;84.16
11643;BME280;5877;50.930;6.918;2022-11-11T07:14:37;102313.38;;;5.57;83.66
11643;BME280;5877;50.930;6.918;2022-11-11T07:19:48;102340.53;;;5.93;83.02
11643;BME280;5877;50.930;6.918;2022-11-11T07:24:58;102295.81;;;5.59;82.35
11643;BME280;5877;50.930;6.918;2022-11-11T07:30:10;102422.91;;;6.61;82.30
11643;BME280;5877;50.930;6.918;2022-11-11T07:35:21;102427.81;;;6.74;81.83
11643;BME280;5877;50.930;6.918;2022-11-11T07:40:31;102356.66;;;6.35;80.79
11643;BME280;5877;50.930;6.918;2022-11-11T07:45:42;102397.31;;;6.84;80.61
11643;BME280;5877;50.930;6.918;2022-11-11T07:50:52;102444.47;;;7.37;79.64
11643;BME280;5877;50.930;6.918;2022-11-11T07:56:04;102400.81;;;7.30;78.35
11643;BME280;5877;50.930;6.918;2022-11-11T08:01:15;102196.28;;;6.21;77.38
11643;BME280;5877;50.930;6.918;2022-11-11T08:06:25;102404.22;;;7.58;77.08
11643;BME280;5877;50.930;6.918;2022-11-11T08:11:36;102446.19;;;7.92;76.37
11643;BME280;5877;50.930;6.918;2022-11-11T08:17:05;102334.22;;;7.16;76.51
11643;BME280;5877;50.930;6.918;2022-11-11T08:22:15;102367.84;;;7.64;75.59
11643;BME280;5877;50.930;6.918;2022-11-11T08:27:28;102505.50;;;8.62;74.49
11643;BME280;5877;50.930;6.918;2022-11-11T08:32:39;102039.91;;;5.84;74.25
11643;BME280;5877;50.930;6.918;2022-11-11T08:37:49;102230.81;;;7.23;73.71
